Time;durP1;ratioP1;P1;durP2;ratioP2;P2;SDS_P1;SDS_P2;PMS_P1;PMS_P2;Temp;Humidity;BMP_temperature;BMP_pressure;BME280_temperature;BME280_humidity;BME280_pressure;Samples;Min_cycle;Max_cycle;Signal;HPM_P1;HPM_P2
2022/06/15 00:02:11;;;;;;;6.18;1.90;;;17.90;85.80;;;;;;4954149;28;20118;-67
2022/06/15 00:04:37;;;;;;;7.88;2.05;;;17.90;85.90;;;;;;4953752;28;20117;-66
2022/06/15 00:07:04;;;;;;;4.43;1.70;;;17.90;86.00;;;;;;4953405;28;20110;-66
2022/06/15 00:09:30;;;;;;;5.20;1.85;;;17.90;86.10;;;;;;4953172;29;20027;-66
2022/06/15 00:11:55;;;;;;;4.85;1.60;;;17.90;86.00;;;;;;4953231;28;20035;-66
2022/06/15 00:14:25;;;;;;;6.75;2.13;;;17.90;86.10;;;;;;4953221;28;20377;-67
2022/06/15 00:16:51;;;;;;;7.82;2.20;;;17.90;86.10;;;;;;4953000;28;20492;-66
2022/06/15 00:19:18;;;;;;;6.20;1.75;;;17.90;86.10;;;;;;4953125;28;20078;-66
2022/06/15 00:21:44;;;;;;;5.65;1.67;;;17.90;86.20;;;;;;4953000;29;20093;-66
2022/06/15 00:24:10;;;;;;;6.13;1.90;;;17.80;86.10;;;;;;4953157;28;20031;-67
2022/06/15 00:26:37;;;;;;;6.82;1.95;;;17.80;86.30;;;;;;4953011;28;20449;-66
2022/06/15 00:29:03;;;;;;;5.72;2.15;;;17.80;86.20;;;;;;4952832;28;20148;-66
2022/06/15 00:31:29;;;;;;;6.32;2.10;;;17.80;86.30;;;;;;4951648;29;20034;-66
2022/06/15 00:33:55;;;;;;;5.40;1.90;;;17.80;86.30;;;;;;4952996;28;20032;-67
2022/06/15 00:36:22;;;;;;;7.28;1.98;;;17.80;86.30;;;;;;4951527;28;20749;-67
2022/06/15 00:38:54;;;;;;;8.75;2.13;;;17.80;86.50;;;;;;4952708;28;20027;-67
2022/06/15 00:41:34;;;;;;;7.40;1.63;;;17.80;86.60;;;;;;4951535;29;20035;-66
2022/06/15 00:44:21;;;;;;;8.35;2.08;;;17.70;86.70;;;;;;4952899;28;20035;-66
2022/06/15 00:46:57;;;;;;;6.28;1.90;;;17.70;86.80;;;;;;4941563;29;20039;-67
2022/06/15 00:49:37;;;;;;;6.05;1.90;;;17.70;87.00;;;;;;5058761;23;20027;-67
2022/06/15 00:52:11;;;;;;;5.25;2.15;;;17.70;87.10;;;;;;4932096;29;20027;-67
2022/06/15 00:54:37;;;;;;;4.90;2.00;;;17.70;87.20;;;;;;4932693;29;20035;-67
2022/06/15 00:57:04;;;;;;;5.13;1.92;;;17.60;87.10;;;;;;4932283;29;20035;-66
2022/06/15 00:59:45;;;;;;;6.15;1.77;;;17.60;87.30;;;;;;4932246;29;20492;-66
2022/06/15 01:02:10;;;;;;;6.43;2.20;;;17.60;87.40;;;;;;4933614;29;20515;-66
2022/06/15 01:04:44;;;;;;;5.65;1.88;;;17.60;87.50;;;;;;4933668;29;20028;-67
2022/06/15 01:07:18;;;;;;;6.25;2.13;;;17.50;87.60;;;;;;4932237;29;20035;-66
2022/06/15 01:10:16;;;;;;;6.57;1.88;;;17.50;87.80;;;;;;4932140;29;20032;-67
2022/06/15 01:12:42;;;;;;;6.53;2.22;;;17.50;87.90;;;;;;4932279;29;20028;-66
2022/06/15 01:15:26;;;;;;;8.57;2.20;;;17.50;88.10;;;;;;4933533;29;20147;-66
2022/06/15 01:18:27;;;;;;;6.65;2.15;;;17.50;88.20;;;;;;4916536;29;20484;-66
2022/06/15 01:21:23;;;;;;;4.47;1.65;;;17.50;88.40;;;;;;4933234;29;20042;-66
2022/06/15 01:24:00;;;;;;;6.00;1.95;;;17.50;88.40;;;;;;4916457;29;20028;-66
2022/06/15 01:26:58;;;;;;;9.75;2.33;;;17.50;88.50;;;;;;4933627;29;20107;-66
2022/06/15 01:29:43;;;;;;;9.65;2.13;;;17.40;88.50;;;;;;4933767;29;20059;-66
2022/06/15 01:32:12;;;;;;;7.75;2.03;;;17.30;89.00;;;;;;4933417;29;20061;-66
2022/06/15 01:34:47;;;;;;;5.72;2.10;;;17.20;89.40;;;;;;4932128;29;20066;-66
2022/06/15 01:37:32;;;;;;;5.00;2.00;;;17.30;89.70;;;;;;4931995;29;20059;-66
2022/06/15 01:40:12;;;;;;;7.55;2.08;;;17.20;89.90;;;;;;4933086;29;20071;-66
2022/06/15 01:43:03;;;;;;;6.97;2.10;;;17.20;89.90;;;;;;4932023;29;20027;-66
2022/06/15 01:45:34;;;;;;;8.75;1.98;;;17.10;90.10;;;;;;4931994;29;20036;-66
2022/06/15 01:48:04;;;;;;;7.97;2.13;;;17.10;90.30;;;;;;4932998;29;20035;-67
2022/06/15 01:50:37;;;;;;;5.60;2.10;;;17.10;90.40;;;;;;4933061;29;20497;-67
2022/06/15 01:53:18;;;;;;;6.57;2.10;;;17.00;90.40;;;;;;4931952;29;20063;-67
2022/06/15 01:55:55;;;;;;;7.75;2.00;;;17.00;90.50;;;;;;4931910;29;20032;-67
2022/06/15 01:58:27;;;;;;;6.15;2.15;;;17.00;90.50;;;;;;4916300;29;20036;-67
2022/06/15 02:01:07;;;;;;;7.90;2.17;;;17.00;90.50;;;;;;4931742;29;20039;-67
2022/06/15 02:03:51;;;;;;;5.32;2.25;;;17.00;90.60;;;;;;4933537;29;20032;-67
2022/06/15 02:06:59;;;;;;;6.53;2.47;;;16.90;90.60;;;;;;4936445;29;20250;-67
2022/06/15 02:09:34;;;;;;;6.55;2.50;;;16.90;90.70;;;;;;4935105;29;20633;-67
2022/06/15 02:12:05;;;;;;;8.80;2.42;;;16.80;90.90;;;;;;4935318;29;20382;-67
2022/06/15 02:14:46;;;;;;;7.60;2.33;;;16.90;90.90;;;;;;4935092;29;20027;-67
2022/06/15 02:17:20;;;;;;;7.60;2.58;;;16.80;91.00;;;;;;4934703;29;20159;-67
2022/06/15 02:19:51;;;;;;;5.50;2.30;;;16.80;91.00;;;;;;4934987;29;20031;-67
2022/06/15 02:22:26;;;;;;;6.88;2.45;;;16.70;91.10;;;;;;4935044;29;20508;-67
2022/06/15 02:24:55;;;;;;;8.15;2.55;;;16.70;91.10;;;;;;4935020;29;20408;-67
2022/06/15 02:27:26;;;;;;;7.47;2.70;;;16.70;91.20;;;;;;4934733;29;20515;-67
2022/06/15 02:29:59;;;;;;;10.07;2.90;;;16.70;91.20;;;;;;4934518;29;20031;-67
2022/06/15 02:32:26;;;;;;;7.18;2.33;;;16.60;91.40;;;;;;4934771;29;20035;-67
2022/06/15 02:34:52;;;;;;;8.02;2.83;;;16.60;91.50;;;;;;4936210;29;20031;-67
2022/06/15 02:37:18;;;;;;;8.60;3.10;;;16.60;91.60;;;;;;4934491;29;20035;-67
2022/06/15 02:39:45;;;;;;;7.32;2.92;;;16.60;91.60;;;;;;4934473;29;20485;-67
2022/06/15 02:42:45;;;;;;;8.43;2.90;;;16.60;91.70;;;;;;4935848;29;20032;-67
2022/06/15 02:45:30;;;;;;;11.18;3.30;;;16.50;91.70;;;;;;4915646;29;20385;-67
2022/06/15 02:47:58;;;;;;;4.63;2.83;;;16.60;91.80;;;;;;4934398;29;20454;-67
2022/06/15 02:50:30;;;;;;;7.57;2.90;;;16.50;91.90;;;;;;4934113;29;20044;-66
2022/06/15 02:53:06;;;;;;;7.43;3.10;;;16.50;91.90;;;;;;4934343;29;20091;-67
2022/06/15 02:55:36;;;;;;;10.55;3.50;;;16.50;92.00;;;;;;4934408;29;20032;-67
2022/06/15 02:58:20;;;;;;;8.70;3.08;;;16.50;92.00;;;;;;4934193;29;20519;-66
2022/06/15 03:00:50;;;;;;;9.02;3.53;;;16.50;92.10;;;;;;4933962;29;20061;-67
2022/06/15 03:03:22;;;;;;;8.23;3.75;;;16.50;92.10;;;;;;4934244;29;20036;-66
2022/06/15 03:05:55;;;;;;;7.60;3.67;;;16.40;92.20;;;;;;4934119;29;20038;-66
2022/06/15 03:08:23;;;;;;;9.38;3.28;;;16.40;92.20;;;;;;4934157;29;20037;-67
2022/06/15 03:10:56;;;;;;;9.93;3.47;;;16.40;92.20;;;;;;4933933;29;20122;-66
2022/06/15 03:13:26;;;;;;;8.45;3.28;;;16.40;92.20;;;;;;4933916;29;20036;-67
2022/06/15 03:15:58;;;;;;;9.82;3.20;;;16.40;92.30;;;;;;4933683;29;20043;-67
2022/06/15 03:18:25;;;;;;;10.45;3.60;;;16.40;92.40;;;;;;4935119;29;20024;-66
2022/06/15 03:20:57;;;;;;;;;;;16.40;92.50;;;;;;4934061;29;20565;-66
2022/06/15 03:23:24;;;;;;;11.30;4.55;;;16.30;92.50;;;;;;4933809;29;19997;-66
2022/06/15 03:25:56;;;;;;;10.77;4.57;;;16.20;92.60;;;;;;4933580;29;20031;-67
2022/06/15 03:28:23;;;;;;;9.70;3.92;;;16.20;92.60;;;;;;4933436;29;20034;-68
2022/06/15 03:30:50;;;;;;;9.18;3.80;;;16.20;92.70;;;;;;4927029;29;20087;-67
2022/06/15 03:33:18;;;;;;;10.15;3.70;;;16.20;92.90;;;;;;4934173;29;20515;-67
2022/06/15 03:35:45;;;;;;;13.20;4.55;;;16.20;93.00;;;;;;4926480;29;20038;-69
2022/06/15 03:38:17;;;;;;;8.70;3.88;;;16.20;92.80;;;;;;4929224;29;20071;-67
2022/06/15 03:40:50;;;;;;;10.50;4.38;;;16.10;92.90;;;;;;4913176;29;20127;-67
2022/06/15 03:43:17;;;;;;;12.77;3.53;;;16.20;92.90;;;;;;4913584;29;20032;-67
2022/06/15 03:45:43;;;;;;;7.78;3.47;;;16.20;93.00;;;;;;4913499;29;20063;-67
2022/06/15 03:48:11;;;;;;;12.90;3.95;;;16.20;93.00;;;;;;4913786;29;20032;-67
2022/06/15 03:50:37;;;;;;;11.88;4.13;;;16.20;93.00;;;;;;4924214;29;20633;-67
2022/06/15 03:53:05;;;;;;;9.98;3.90;;;16.10;93.00;;;;;;4932060;29;20046;-66
2022/06/15 03:55:36;;;;;;;7.90;3.63;;;16.10;93.10;;;;;;4932136;29;20042;-66
2022/06/15 03:58:14;;;;;;;9.50;3.55;;;16.10;93.20;;;;;;4932436;29;20043;-66
2022/06/15 04:00:41;;;;;;;10.88;3.97;;;16.10;93.20;;;;;;4932218;29;20054;-66
2022/06/15 04:03:12;;;;;;;5.43;2.95;;;16.10;93.10;;;;;;4932722;29;20075;-66
2022/06/15 04:05:56;;;;;;;10.68;3.95;;;16.20;93.20;;;;;;4931882;29;20461;-66
2022/06/15 04:08:35;;;;;;;8.38;3.40;;;16.20;93.20;;;;;;4932303;29;20024;-66
2022/06/15 04:11:58;;;;;;;12.60;4.43;;;16.20;93.20;;;;;;4932003;29;20028;-66
2022/06/15 04:14:10;;;;;;;9.02;3.92;;;16.20;93.30;;;;;;4931713;29;20032;-66
2022/06/15 04:16:38;;;;;;;9.30;3.58;;;16.20;93.40;;;;;;4932187;29;20394;-66
2022/06/15 04:19:07;;;;;;;10.05;3.90;;;16.10;93.50;;;;;;4931184;29;20035;-66
2022/06/15 04:21:33;;;;;;;6.93;3.63;;;16.20;93.60;;;;;;4931792;29;20027;-66
2022/06/15 04:23:59;;;;;;;9.45;3.67;;;16.20;93.60;;;;;;4932118;29;20094;-66
2022/06/15 04:26:27;;;;;;;9.88;3.75;;;16.20;93.60;;;;;;4931154;29;20027;-66
2022/06/15 04:28:53;;;;;;;10.75;4.35;;;16.20;93.50;;;;;;4931623;29;20050;-66
2022/06/15 04:31:26;;;;;;;10.60;3.70;;;16.20;93.60;;;;;;4928582;29;20500;-66
2022/06/15 04:33:54;;;;;;;5.65;3.67;;;16.20;93.60;;;;;;4920968;29;20043;-66
2022/06/15 04:36:24;;;;;;;10.05;3.97;;;16.20;93.60;;;;;;4912187;29;20040;-67
2022/06/15 04:38:57;;;;;;;7.50;4.07;;;16.20;93.60;;;;;;4912162;29;20508;-66
2022/06/15 04:41:24;;;;;;;10.00;3.40;;;16.20;93.60;;;;;;4912151;29;20032;-67
2022/06/15 04:43:50;;;;;;;11.40;3.72;;;16.30;93.80;;;;;;4912668;29;20500;-68
2022/06/15 04:46:17;;;;;;;9.98;3.70;;;16.30;93.80;;;;;;4912394;29;20035;-69
2022/06/15 04:48:45;;;;;;;11.75;3.65;;;16.30;93.80;;;;;;4897119;29;20056;-66
2022/06/15 04:51:23;;;;;;;11.55;3.60;;;16.40;93.90;;;;;;4912006;29;20046;-66
2022/06/15 04:53:54;;;;;;;10.25;4.03;;;16.30;93.90;;;;;;4912563;29;20401;-66
2022/06/15 04:56:21;;;;;;;7.43;3.67;;;16.40;93.90;;;;;;4912278;29;20035;-66
2022/06/15 04:58:48;;;;;;;8.63;3.67;;;16.40;93.80;;;;;;4912549;29;20032;-67
2022/06/15 05:01:17;;;;;;;;;;;16.50;93.70;;;;;;4912907;29;20481;-67
2022/06/15 05:03:44;;;;;;;10.68;4.55;;;16.50;93.70;;;;;;4912640;29;19922;-69
2022/06/15 05:06:35;;;;;;;9.18;3.72;;;16.50;93.70;;;;;;4912059;29;20493;-65
2022/06/15 05:09:05;;;;;;;8.40;4.07;;;16.50;93.60;;;;;;4907767;29;20064;-66
2022/06/15 05:11:31;;;;;;;7.97;4.15;;;16.60;93.70;;;;;;4912044;29;20486;-67
2022/06/15 05:13:57;;;;;;;7.78;3.53;;;16.60;93.70;;;;;;4912256;29;20088;-67
2022/06/15 05:16:27;;;;;;;10.93;3.92;;;16.60;93.60;;;;;;4911905;29;20037;-66
2022/06/15 05:18:53;;;;;;;9.45;3.55;;;16.70;93.60;;;;;;4913348;29;20628;-65
2022/06/15 05:21:27;;;;;;;9.55;4.00;;;16.70;93.70;;;;;;4911789;29;20487;-65
2022/06/15 05:23:53;;;;;;;8.98;3.85;;;16.70;93.60;;;;;;4912238;29;20123;-65
2022/06/15 05:26:44;;;;;;;7.30;3.70;;;16.80;93.50;;;;;;4912136;29;20096;-65
2022/06/15 05:29:10;;;;;;;8.63;3.97;;;16.70;93.50;;;;;;4911995;29;20028;-65
2022/06/15 05:31:36;;;;;;;8.15;3.67;;;16.80;93.50;;;;;;4928139;29;20036;-64
2022/06/15 05:34:05;;;;;;;8.63;4.43;;;16.80;93.30;;;;;;4913531;29;20047;-67
2022/06/15 05:36:35;;;;;;;7.20;4.03;;;16.80;93.30;;;;;;4912325;29;20535;-67
2022/06/15 05:39:05;;;;;;;9.40;4.07;;;16.80;93.30;;;;;;4913364;29;20302;-67
2022/06/15 05:41:34;;;;;;;10.85;4.10;;;16.90;93.40;;;;;;4915706;29;20032;-67
2022/06/15 05:44:24;;;;;;;10.25;3.67;;;16.90;93.40;;;;;;4915884;29;20028;-65
2022/06/15 05:46:55;;;;;;;11.57;3.95;;;16.90;93.50;;;;;;4915924;29;20036;-65
2022/06/15 05:49:27;;;;;;;9.40;3.75;;;17.00;93.40;;;;;;4915127;29;20588;-65
2022/06/15 05:51:54;;;;;;;7.60;3.42;;;17.00;93.30;;;;;;4917159;29;20570;-65
2022/06/15 05:54:21;;;;;;;8.55;3.78;;;17.00;93.20;;;;;;4915865;29;20493;-65
2022/06/15 05:56:47;;;;;;;7.05;3.60;;;17.00;93.30;;;;;;4916678;29;20039;-65
2022/06/15 05:59:13;;;;;;;8.32;4.05;;;17.00;93.30;;;;;;4916925;29;20331;-65
2022/06/15 06:01:40;;;;;;;7.65;3.95;;;17.10;93.30;;;;;;4916423;29;20035;-65
2022/06/15 06:04:07;;;;;;;10.27;4.18;;;17.10;93.10;;;;;;4914616;29;20032;-66
2022/06/15 06:06:33;;;;;;;7.10;3.90;;;17.20;93.20;;;;;;4915759;29;20039;-66
2022/06/15 06:09:00;;;;;;;10.85;4.30;;;17.20;93.20;;;;;;4916748;29;20703;-65
2022/06/15 06:11:27;;;;;;;7.75;3.67;;;17.20;93.30;;;;;;4916804;29;20123;-65
2022/06/15 06:13:55;;;;;;;8.65;3.70;;;17.30;93.30;;;;;;4916552;29;20115;-65
2022/06/15 06:16:21;;;;;;;10.45;4.00;;;17.30;93.30;;;;;;4915820;29;20039;-66
2022/06/15 06:18:47;;;;;;;7.75;3.40;;;17.30;93.30;;;;;;4915822;29;20032;-66
2022/06/15 06:21:13;;;;;;;7.55;3.38;;;17.40;93.40;;;;;;4915757;29;20036;-66
2022/06/15 06:23:39;;;;;;;10.90;4.00;;;17.40;93.30;;;;;;4916416;29;20477;-66
2022/06/15 06:26:06;;;;;;;10.35;3.53;;;17.50;93.60;;;;;;4916110;29;20099;-65
2022/06/15 06:28:35;;;;;;;6.20;2.90;;;17.50;93.60;;;;;;4916098;29;20175;-65
2022/06/15 06:31:03;;;;;;;8.88;3.80;;;17.50;93.50;;;;;;4915845;29;20111;-66
2022/06/15 06:33:32;;;;;;;8.95;3.28;;;17.60;93.50;;;;;;4915978;29;20040;-66
2022/06/15 06:36:02;;;;;;;9.30;3.67;;;17.60;93.60;;;;;;4915450;29;20039;-66
2022/06/15 06:38:27;;;;;;;10.07;4.15;;;17.60;93.70;;;;;;4916154;29;20080;-66
2022/06/15 06:40:55;;;;;;;12.48;4.53;;;17.60;93.70;;;;;;4915715;29;20485;-65
2022/06/15 06:43:22;;;;;;;9.20;4.63;;;17.70;93.20;;;;;;4916173;29;20028;-66
2022/06/15 06:45:49;;;;;;;14.13;4.50;;;17.80;93.00;;;;;;4915567;29;20437;-66
2022/06/15 06:48:15;;;;;;;10.95;4.28;;;17.80;93.10;;;;;;4915987;29;20039;-66
2022/06/15 06:50:42;;;;;;;10.30;4.60;;;17.80;93.10;;;;;;4914691;29;20043;-66
2022/06/15 06:53:10;;;;;;;9.90;3.72;;;17.80;92.80;;;;;;4915816;29;20159;-66
2022/06/15 06:55:35;;;;;;;7.68;3.13;;;17.80;92.80;;;;;;4930643;29;20032;-66
2022/06/15 06:58:02;;;;;;;10.90;3.90;;;17.90;92.90;;;;;;4930277;29;20366;-68
2022/06/15 07:00:31;;;;;;;6.93;3.53;;;17.90;92.80;;;;;;4915195;29;20497;-66
2022/06/15 07:03:01;;;;;;;8.15;3.17;;;17.90;92.70;;;;;;4916079;29;20135;-67
2022/06/15 07:05:28;;;;;;;10.07;3.78;;;18.00;92.80;;;;;;4915384;29;20123;-67
2022/06/15 07:07:54;;;;;;;7.07;3.13;;;18.00;92.70;;;;;;4915561;29;20347;-66
2022/06/15 07:10:21;;;;;;;7.07;3.42;;;18.00;92.80;;;;;;4915216;29;20104;-67
2022/06/15 07:12:47;;;;;;;5.70;2.92;;;18.10;92.80;;;;;;4915628;29;20032;-66
2022/06/15 07:15:14;;;;;;;9.48;3.70;;;18.10;92.60;;;;;;4913840;29;20032;-66
2022/06/15 07:17:41;;;;;;;6.13;2.90;;;18.10;92.50;;;;;;4915276;29;20103;-67
2022/06/15 07:20:09;;;;;;;11.13;3.97;;;18.10;92.50;;;;;;4914719;29;20036;-67
2022/06/15 07:22:35;;;;;;;8.85;4.40;;;18.20;93.20;;;;;;4915465;29;20036;-66
2022/06/15 07:25:02;;;;;;;15.13;4.60;;;18.20;93.30;;;;;;4915247;29;20035;-67
2022/06/15 07:27:28;;;;;;;10.20;3.97;;;18.30;93.20;;;;;;4915129;29;20425;-68
2022/06/15 07:29:55;;;;;;;8.55;3.45;;;18.30;92.90;;;;;;4914676;29;20028;-68
2022/06/15 07:32:22;;;;;;;7.78;4.00;;;18.40;92.40;;;;;;4915125;29;20504;-68
2022/06/15 07:34:48;;;;;;;8.57;3.60;;;18.40;92.50;;;;;;4914666;29;20028;-67
2022/06/15 07:37:14;;;;;;;6.85;3.05;;;18.40;92.50;;;;;;4914667;29;20780;-67
2022/06/15 07:39:41;;;;;;;8.00;3.13;;;18.50;92.40;;;;;;4914638;29;20052;-67
2022/06/15 07:42:09;;;;;;;10.40;3.63;;;18.50;92.80;;;;;;4913361;29;20047;-66
2022/06/15 07:44:36;;;;;;;6.78;2.80;;;18.60;92.40;;;;;;4914825;29;20033;-67
2022/06/15 07:49:56;;;;;;;9.48;3.13;;;18.60;92.80;;;;;;4913921;29;20024;-66
2022/06/15 07:52:32;;;;;;;7.97;2.72;;;18.60;93.00;;;;;;4919727;29;20485;-66
2022/06/15 07:54:58;;;;;;;6.90;3.72;;;18.70;93.00;;;;;;4933590;29;20042;-66
2022/06/15 07:57:24;;;;;;;7.07;3.05;;;18.70;93.60;;;;;;4933205;29;20032;-66
2022/06/15 07:59:50;;;;;;;6.13;2.92;;;18.80;92.50;;;;;;4933084;29;20479;-66
2022/06/15 08:02:17;;;;;;;11.00;3.28;;;18.80;92.40;;;;;;4932680;29;20107;-66
2022/06/15 08:04:43;;;;;;;10.30;3.03;;;18.80;92.50;;;;;;4932914;29;20028;-66
2022/06/15 08:07:13;;;;;;;9.48;3.17;;;18.80;92.50;;;;;;4933052;29;20122;-66
2022/06/15 08:09:40;;;;;;;7.13;2.95;;;18.80;93.00;;;;;;4932946;29;20020;-66
2022/06/15 08:12:19;;;;;;;6.18;2.30;;;18.90;92.90;;;;;;4933376;29;20122;-66
2022/06/15 08:14:47;;;;;;;7.28;3.00;;;18.90;93.30;;;;;;4933081;29;20066;-67
2022/06/15 08:17:25;;;;;;;8.63;3.10;;;18.90;93.60;;;;;;4933142;29;20063;-66
2022/06/15 08:20:05;;;;;;;6.47;2.90;;;18.90;92.90;;;;;;4932683;29;20492;-66
2022/06/15 08:22:34;;;;;;;9.40;3.10;;;19.00;92.80;;;;;;4933408;29;20055;-66
2022/06/15 08:25:01;;;;;;;9.02;3.30;;;19.00;93.10;;;;;;4932844;29;20032;-66
2022/06/15 08:27:28;;;;;;;9.60;2.90;;;19.00;92.90;;;;;;4932762;29;20028;-66
2022/06/15 08:29:54;;;;;;;8.45;2.70;;;19.10;92.30;;;;;;4932370;29;20039;-65
2022/06/15 08:32:21;;;;;;;7.95;2.70;;;19.10;92.90;;;;;;4932785;29;20091;-66
2022/06/15 08:34:47;;;;;;;15.05;3.50;;;19.10;92.80;;;;;;4932247;29;20111;-66
2022/06/15 08:37:16;;;;;;;11.23;3.10;;;19.20;92.00;;;;;;4932712;29;20084;-66
2022/06/15 08:39:42;;;;;;;9.50;3.10;;;19.20;92.40;;;;;;4947061;28;20032;-66
2022/06/15 08:42:46;;;;;;;6.85;2.63;;;19.30;92.00;;;;;;4932536;29;20042;-66
2022/06/15 08:45:34;;;;;;;8.27;2.65;;;19.30;91.60;;;;;;4934653;28;20040;-66
2022/06/15 08:48:21;;;;;;;9.27;3.17;;;19.40;91.20;;;;;;4932485;29;20038;-66
2022/06/15 08:51:09;;;;;;;8.05;2.40;;;19.40;91.40;;;;;;4939522;29;20702;-66
2022/06/15 08:53:43;;;;;;;12.30;2.60;;;19.50;91.20;;;;;;4932823;29;20065;-67
2022/06/15 08:56:14;;;;;;;9.43;2.70;;;19.50;91.30;;;;;;4932428;29;20032;-66
2022/06/15 08:58:45;;;;;;;9.80;2.80;;;19.60;90.10;;;;;;4932736;29;20031;-67
2022/06/15 09:01:30;;;;;;;9.60;2.95;;;19.70;90.20;;;;;;4932699;29;20353;-68
2022/06/15 09:04:18;;;;;;;8.10;2.58;;;19.70;90.50;;;;;;4932872;29;20027;-68
2022/06/15 09:07:21;;;;;;;6.93;2.80;;;19.70;90.60;;;;;;4932656;29;20118;-66
2022/06/15 09:10:12;;;;;;;9.70;2.85;;;19.70;91.20;;;;;;4932004;29;20028;-68
2022/06/15 09:13:01;;;;;;;6.90;2.70;;;19.70;91.00;;;;;;4933300;29;20050;-68
2022/06/15 09:15:42;;;;;;;6.43;2.58;;;19.70;90.60;;;;;;4936582;29;20024;-68
2022/06/15 09:18:31;;;;;;;6.43;2.55;;;19.70;90.10;;;;;;4936787;29;20073;-68
2022/06/15 09:20:57;;;;;;;;;;;19.80;90.20;;;;;;4934092;29;20389;-68
2022/06/15 09:23:44;;;;;;;7.07;2.70;;;19.80;90.50;;;;;;4933876;29;19910;-67
2022/06/15 09:26:18;;;;;;;5.88;2.45;;;19.80;90.70;;;;;;4936331;29;20038;-68
2022/06/15 09:28:49;;;;;;;8.68;3.05;;;19.80;90.60;;;;;;4935749;29;20031;-67
2022/06/15 09:31:32;;;;;;;6.65;3.22;;;19.80;90.40;;;;;;4937452;29;20035;-67
2022/06/15 09:34:02;;;;;;;8.02;2.63;;;19.90;90.60;;;;;;4937742;29;20176;-68
2022/06/15 09:36:50;;;;;;;6.55;2.30;;;19.90;90.50;;;;;;4937497;28;20159;-67
2022/06/15 09:39:17;;;;;;;7.32;2.65;;;20.00;90.10;;;;;;4936504;29;20036;-68
2022/06/15 09:41:57;;;;;;;8.05;2.80;;;20.10;89.40;;;;;;4937541;29;20056;-68
2022/06/15 09:44:26;;;;;;;7.55;2.55;;;20.20;89.80;;;;;;4937254;29;20103;-68
2022/06/15 09:47:14;;;;;;;;;;;20.30;88.60;;;;;;4937031;29;20034;-68
2022/06/15 09:49:52;;;;;;;6.53;2.40;;;20.30;88.70;;;;;;4937046;29;20284;-68
2022/06/15 09:52:27;;;;;;;5.32;2.08;;;20.30;88.20;;;;;;4936974;29;20362;-68
2022/06/15 09:55:09;;;;;;;6.03;2.58;;;20.30;89.40;;;;;;4967519;28;20043;-66
2022/06/15 09:57:37;;;;;;;6.50;2.38;;;20.30;89.60;;;;;;4936455;29;20448;-68
2022/06/15 10:00:06;;;;;;;8.18;2.17;;;20.20;90.50;;;;;;4936517;29;20515;-68
2022/06/15 10:02:39;;;;;;;8.00;2.58;;;20.20;90.10;;;;;;4936939;29;20040;-68
2022/06/15 10:05:12;;;;;;;7.38;2.30;;;20.20;90.00;;;;;;4936564;29;20031;-68
2022/06/15 10:07:43;;;;;;;8.05;2.70;;;20.30;88.90;;;;;;4936329;29;20035;-68
2022/06/15 10:10:21;;;;;;;5.03;2.25;;;20.30;87.00;;;;;;4936453;29;20023;-68
2022/06/15 10:12:57;;;;;;;6.03;2.47;;;20.30;86.40;;;;;;4936684;29;20039;-68
2022/06/15 10:15:43;;;;;;;6.45;2.00;;;20.30;87.40;;;;;;4936468;29;20473;-68
2022/06/15 10:18:34;;;;;;;11.25;2.83;;;20.30;88.50;;;;;;4936701;29;20032;-67
2022/06/15 10:21:04;;;;;;;7.25;2.47;;;20.40;86.30;;;;;;4936237;29;20588;-68
2022/06/15 10:23:42;;;;;;;8.63;2.33;;;20.50;86.10;;;;;;4936382;29;20079;-68
2022/06/15 10:26:21;;;;;;;8.75;2.40;;;20.60;86.70;;;;;;4935663;29;20123;-68
2022/06/15 10:28:47;;;;;;;6.25;2.28;;;20.60;86.10;;;;;;4936189;29;20038;-68
2022/06/15 10:31:22;;;;;;;6.85;2.60;;;20.70;85.60;;;;;;4936297;29;20173;-68
2022/06/15 10:33:50;;;;;;;6.30;2.38;;;20.80;87.10;;;;;;4936229;29;20119;-68
2022/06/15 10:36:30;;;;;;;8.77;2.60;;;20.80;86.40;;;;;;4934978;29;20576;-68
2022/06/15 10:39:01;;;;;;;8.35;2.60;;;20.90;85.00;;;;;;4936009;29;20118;-68
2022/06/15 10:41:46;;;;;;;6.63;2.25;;;20.90;84.70;;;;;;4935870;29;20108;-68
2022/06/15 10:44:15;;;;;;;6.60;2.13;;;20.90;85.40;;;;;;4936012;29;20024;-68
2022/06/15 10:47:03;;;;;;;7.15;2.13;;;20.90;86.30;;;;;;4935709;29;20032;-68
2022/06/15 10:49:33;;;;;;;9.45;2.95;;;21.00;84.40;;;;;;4935565;29;20039;-68
2022/06/15 10:51:59;;;;;;;12.70;2.40;;;21.10;82.90;;;;;;4935862;29;20075;-68
2022/06/15 10:54:31;;;;;;;6.07;2.47;;;21.10;83.30;;;;;;4935851;29;20051;-67
2022/06/15 11:03:25;;;;;;;6.60;2.45;;;21.20;82.00;;;;;;4934256;29;20386;-68
2022/06/15 11:05:54;;;;;;;6.47;2.50;;;21.20;83.20;;;;;;4935387;29;20032;-68
2022/06/15 11:08:30;;;;;;;5.22;2.30;;;21.20;83.40;;;;;;4935443;29;20509;-68
2022/06/15 11:11:17;;;;;;;7.50;2.58;;;21.30;82.80;;;;;;4935935;29;20163;-67
2022/06/15 11:13:54;;;;;;;8.00;2.53;;;21.30;82.80;;;;;;4935792;29;20036;-68
2022/06/15 11:19:19;;;;;;;6.13;2.25;;;21.40;82.10;;;;;;4935886;29;20031;-67
2022/06/15 11:21:47;;;;;;;6.97;2.42;;;21.50;81.70;;;;;;4936131;29;20032;-68
2022/06/15 11:24:38;;;;;;;5.90;2.40;;;21.50;81.60;;;;;;4936955;29;20046;-68
2022/06/15 11:27:16;;;;;;;6.72;2.60;;;21.50;81.60;;;;;;4935067;29;20031;-68
2022/06/15 11:29:53;;;;;;;5.22;3.00;;;21.50;81.70;;;;;;4934959;29;20028;-68
2022/06/15 11:32:48;;;;;;;14.48;3.22;;;21.50;82.20;;;;;;4935035;29;20035;-68
2022/06/15 11:35:14;;;;;;;18.92;4.45;;;21.50;81.70;;;;;;4934973;29;20478;-68
2022/06/15 11:38:10;;;;;;;9.13;2.90;;;21.50;84.00;;;;;;4934560;29;20153;-67
2022/06/15 11:41:13;;;;;;;6.57;2.60;;;21.40;84.80;;;;;;4934600;29;20054;-68
2022/06/15 11:43:44;;;;;;;5.93;2.08;;;21.30;83.10;;;;;;4934858;29;20159;-68
2022/06/15 11:46:15;;;;;;;8.50;3.20;;;21.30;84.30;;;;;;4934546;29;20035;-68
2022/06/15 11:49:00;;;;;;;8.63;3.67;;;21.20;85.70;;;;;;4933490;29;20405;-67
2022/06/15 11:51:42;;;;;;;7.30;3.88;;;21.30;82.60;;;;;;4934746;29;20040;-68
2022/06/15 11:54:49;;;;;;;4.53;2.72;;;21.40;81.80;;;;;;4934639;29;20035;-68
2022/06/15 11:57:39;;;;;;;8.10;2.85;;;21.40;85.80;;;;;;4939960;29;20454;-68
2022/06/15 12:00:31;;;;;;;5.55;2.40;;;21.30;85.60;;;;;;4934376;29;20031;-68
2022/06/15 12:03:28;;;;;;;6.53;2.45;;;21.30;85.20;;;;;;4934557;29;20481;-68
2022/06/15 12:06:25;;;;;;;5.30;2.30;;;21.40;82.80;;;;;;4933081;29;20027;-67
2022/06/15 12:09:22;;;;;;;4.53;2.40;;;21.50;82.00;;;;;;4934479;29;20028;-68
2022/06/15 12:15:12;;;;;;;8.57;2.97;;;21.70;82.70;;;;;;4934339;29;20063;-68
2022/06/15 12:17:53;;;;;;;7.82;3.20;;;21.80;83.20;;;;;;4934397;29;20040;-68
2022/06/15 12:20:34;;;;;;;8.13;3.03;;;21.90;83.20;;;;;;4934194;29;20039;-68
2022/06/15 12:23:12;;;;;;;8.15;3.80;;;22.00;84.00;;;;;;4934255;29;20489;-68
2022/06/15 12:25:42;;;;;;;21.15;5.20;;;22.00;82.10;;;;;;4934106;29;20063;-68
2022/06/15 12:28:19;;;;;;;13.07;3.40;;;22.30;80.00;;;;;;4932774;29;20073;-68
2022/06/15 12:31:10;;;;;;;7.40;2.55;;;22.50;79.30;;;;;;4933796;29;20035;-68
2022/06/15 12:34:11;;;;;;;5.75;2.97;;;22.70;78.10;;;;;;4934443;29;20087;-67
2022/06/15 12:36:48;;;;;;;7.25;2.67;;;22.90;77.60;;;;;;4933835;29;20043;-68
2022/06/15 12:39:33;;;;;;;6.03;2.60;;;23.10;77.40;;;;;;4933777;29;20067;-68
2022/06/15 12:42:09;;;;;;;7.43;2.30;;;23.30;76.90;;;;;;4933907;29;20091;-68
2022/06/15 12:44:38;;;;;;;7.65;2.92;;;23.40;76.50;;;;;;4932720;29;20436;-68
2022/06/15 12:47:07;;;;;;;;;;;23.70;75.70;;;;;;4934008;29;20032;-68
2022/06/15 12:50:18;;;;;;;6.80;2.90;;;23.80;75.40;;;;;;4933836;29;20409;-68
2022/06/15 12:53:03;;;;;;;7.28;2.78;;;24.00;75.00;;;;;;4938084;29;20048;-68
2022/06/15 12:56:07;;;;;;;5.72;2.65;;;24.10;75.90;;;;;;4933839;29;20036;-68
2022/06/15 12:58:55;;;;;;;10.82;3.10;;;24.10;75.80;;;;;;4933595;29;20027;-68
2022/06/15 13:01:38;;;;;;;6.28;2.55;;;24.20;74.50;;;;;;4932619;29;20038;-68
2022/06/15 13:04:42;;;;;;;6.82;2.50;;;24.30;74.50;;;;;;4933742;29;20035;-68
2022/06/15 13:07:21;;;;;;;8.70;3.22;;;24.40;73.80;;;;;;4936931;29;20497;-68
2022/06/15 13:10:06;;;;;;;6.20;2.42;;;24.40;72.40;;;;;;4933437;29;20513;-67
2022/06/15 13:12:48;;;;;;;6.00;2.28;;;24.40;72.70;;;;;;4948559;28;20035;-68
2022/06/15 13:15:42;;;;;;;7.40;3.08;;;24.30;73.10;;;;;;4933594;29;20111;-68
2022/06/15 13:18:12;;;;;;;7.45;2.80;;;24.00;73.80;;;;;;4933639;29;20028;-67
2022/06/15 13:20:50;;;;;;;5.25;3.20;;;23.90;74.50;;;;;;4964086;28;20036;-68
2022/06/15 13:23:32;;;;;;;7.45;2.70;;;23.80;72.80;;;;;;4933453;29;20063;-68
2022/06/15 13:26:10;;;;;;;7.95;2.70;;;23.70;73.40;;;;;;4932027;29;20036;-68
2022/06/15 13:28:41;;;;;;;8.43;2.50;;;23.80;72.00;;;;;;4933868;29;20051;-68
2022/06/15 13:31:10;;;;;;;6.63;2.50;;;23.70;71.40;;;;;;4933406;29;20401;-68
2022/06/15 13:33:51;;;;;;;6.72;2.65;;;23.70;71.10;;;;;;4933280;29;20028;-68
2022/06/15 13:36:21;;;;;;;8.73;3.35;;;23.60;71.50;;;;;;4933335;29;20036;-68
2022/06/15 13:38:47;;;;;;;8.02;3.65;;;23.60;72.80;;;;;;4933296;29;20401;-68